Time;durP1;ratioP1;P1;durP2;ratioP2;P2;SDS_P1;SDS_P2;PMS_P1;PMS_P2;Temp;Humidity;BMP_temperature;BMP_pressure;BME280_temperature;BME280_humidity;BME280_pressure;Samples;Min_cycle;Max_cycle;Signal;HPM_P1;HPM_P2
2022/06/05 00:02:44;;;;;;;13.67;5.87;;;;;;;19.71;54.22;101578.59;5191620;28;20412;-76
2022/06/05 00:05:25;;;;;;;8.37;4.60;;;;;;;19.65;54.94;101589.78;5180717;28;20060;-76
2022/06/05 00:08:14;;;;;;;5.80;4.90;;;;;;;19.64;55.26;101604.03;5209472;28;20037;-76
2022/06/05 00:10:55;;;;;;;5.17;4.23;;;;;;;19.60;54.90;101584.88;5211518;28;20362;-77
2022/06/05 00:13:37;;;;;;;9.77;5.43;;;;;;;19.45;55.15;101571.09;5211641;28;20042;-76
2022/06/05 00:16:08;;;;;;;8.10;5.17;;;;;;;19.44;55.53;101553.50;5215511;28;20038;-76
2022/06/05 00:18:42;;;;;;;6.67;5.03;;;;;;;19.31;56.00;101559.84;5210644;28;20038;-76
2022/06/05 00:21:14;;;;;;;6.20;4.63;;;;;;;19.40;55.77;101558.22;5210922;28;20084;-76
2022/06/05 00:23:46;;;;;;;6.43;5.53;;;;;;;19.38;55.46;101564.63;5209572;28;20811;-76
2022/06/05 00:26:36;;;;;;;5.87;4.80;;;;;;;19.30;55.96;101567.97;5210329;28;20018;-76
2022/06/05 00:29:24;;;;;;;5.70;4.50;;;;;;;19.31;55.69;101565.16;5211087;28;20129;-76
2022/06/05 00:32:09;;;;;;;12.30;5.13;;;;;;;19.24;55.15;101550.72;5211036;28;20401;-76
2022/06/05 00:34:42;;;;;;;6.43;4.70;;;;;;;19.25;55.16;101555.09;5210707;28;20758;-76
2022/06/05 00:37:54;;;;;;;5.23;4.73;;;;;;;19.38;55.30;101546.88;5210508;28;20080;-76
2022/06/05 00:40:44;;;;;;;5.63;4.73;;;;;;;19.25;55.40;101543.63;5211172;28;20030;-76
2022/06/05 00:43:20;;;;;;;5.70;4.50;;;;;;;19.24;55.39;101540.09;5210884;28;20091;-76
2022/06/05 00:45:53;;;;;;;6.40;4.57;;;;;;;18.95;56.69;101543.41;5210745;28;20034;-76
2022/06/05 00:48:25;;;;;;;5.20;4.70;;;;;;;19.02;56.46;101533.97;5210628;28;20026;-76
2022/06/05 00:50:56;;;;;;;8.23;4.93;;;;;;;18.90;57.17;101545.63;5211082;28;20083;-75
2022/06/05 00:53:28;;;;;;;8.07;4.83;;;;;;;18.99;56.24;101539.50;5209376;28;20030;-75
2022/06/05 00:55:59;;;;;;;7.17;4.80;;;;;;;18.90;56.24;101519.09;5212370;28;20064;-75
2022/06/05 00:58:31;;;;;;;13.37;4.80;;;;;;;18.86;56.59;101532.63;5213458;28;20129;-76
2022/06/05 01:01:03;;;;;;;5.97;4.20;;;;;;;18.88;56.52;101537.78;5209717;28;20105;-77
2022/06/05 01:03:35;;;;;;;9.33;5.00;;;;;;;18.92;56.12;101533.88;5210969;28;20052;-75
2022/06/05 01:06:07;;;;;;;8.57;4.90;;;;;;;18.94;56.44;101531.09;5208663;28;20400;-75
2022/06/05 01:08:40;;;;;;;5.33;4.77;;;;;;;18.73;56.60;101539.91;5209311;28;20038;-75
2022/06/05 01:11:19;;;;;;;5.63;4.57;;;;;;;18.71;57.08;101547.19;5208194;28;20032;-76
2022/06/05 01:13:58;;;;;;;6.43;5.27;;;;;;;18.90;55.92;101537.66;5210662;28;20497;-75
2022/06/05 01:16:54;;;;;;;5.73;4.73;;;;;;;18.82;56.23;101536.50;5209892;28;20383;-75
2022/06/05 01:19:50;;;;;;;6.93;4.43;;;;;;;18.81;56.30;101552.56;5210506;28;20576;-76
2022/06/05 01:22:40;;;;;;;6.40;4.77;;;;;;;18.90;56.01;101588.09;5198059;28;20103;-76
2022/06/05 01:25:33;;;;;;;9.33;5.80;;;;;;;18.96;55.85;101612.28;5210133;28;20676;-77
2022/06/05 01:28:09;;;;;;;7.70;4.83;;;;;;;18.78;57.55;101572.22;5209376;28;20214;-75
2022/06/05 01:30:55;;;;;;;5.90;4.97;;;;;;;18.96;56.76;101587.56;5212372;28;20365;-76
2022/06/05 01:33:28;;;;;;;6.07;5.20;;;;;;;18.93;57.71;101609.91;5209566;28;20109;-75
2022/06/05 01:36:06;;;;;;;6.93;5.15;;;;;;;18.93;57.47;101582.50;5210248;28;20535;-76
2022/06/05 01:38:58;;;;;;;6.17;4.90;;;;;;;18.93;57.02;101527.63;5208866;28;20033;-76
2022/06/05 01:41:39;;;;;;;7.53;4.60;;;;;;;18.86;57.80;101553.84;5210064;28;20021;-75
2022/06/05 01:44:16;;;;;;;7.27;4.90;;;;;;;19.06;57.42;101579.69;5209335;28;20026;-76
2022/06/05 01:46:50;;;;;;;6.63;4.53;;;;;;;18.91;58.35;101563.22;5210058;28;20021;-76
2022/06/05 01:49:27;;;;;;;5.55;4.55;;;;;;;18.89;58.69;101566.00;5210131;28;20025;-76
2022/06/05 01:52:28;;;;;;;7.97;4.73;;;;;;;19.05;57.80;101544.31;5208451;28;20675;-76
2022/06/05 01:55:13;;;;;;;4.93;4.10;;;;;;;18.97;58.66;101541.50;5209553;28;20037;-75
2022/06/05 01:57:45;;;;;;;5.53;4.37;;;;;;;18.82;59.08;101533.00;5210014;28;20064;-75
2022/06/05 02:00:20;;;;;;;8.80;5.60;;;;;;;18.94;58.63;101531.97;5209015;28;20127;-75
2022/06/05 02:03:08;;;;;;;5.43;4.17;;;;;;;19.00;57.92;101525.28;5210047;28;20404;-75
2022/06/05 02:05:43;;;;;;;10.00;5.20;;;;;;;19.02;58.18;101504.78;5208676;28;20026;-76
2022/06/05 02:08:27;;;;;;;7.40;5.63;;;;;;;18.88;58.74;101494.50;5208170;28;20034;-76
2022/06/05 02:11:12;;;;;;;7.00;5.30;;;;;;;18.95;59.15;101493.00;5203726;28;20124;-76
2022/06/05 02:13:43;;;;;;;6.90;4.83;;;;;;;18.84;61.03;101462.91;5189251;28;20050;-75
2022/06/05 02:16:15;;;;;;;6.97;5.50;;;;;;;18.67;60.87;101461.69;5202011;28;20041;-76
2022/06/05 02:18:47;;;;;;;8.43;5.37;;;;;;;18.50;61.27;101449.88;5209138;28;20030;-77
2022/06/05 02:21:19;;;;;;;6.43;5.70;;;;;;;18.43;61.66;101438.91;5208217;28;20052;-76
2022/06/05 02:23:50;;;;;;;7.67;5.50;;;;;;;18.53;60.84;101444.31;5209560;28;20026;-76
2022/06/05 02:26:21;;;;;;;7.57;5.93;;;;;;;18.50;60.69;101449.88;5212851;28;20433;-75
2022/06/05 02:28:53;;;;;;;8.30;6.23;;;;;;;18.36;61.28;101433.28;5210047;28;20048;-75
2022/06/05 02:31:43;;;;;;;9.40;5.83;;;;;;;18.42;60.46;101437.25;5211682;28;20037;-76
2022/06/05 02:34:33;;;;;;;9.07;6.43;;;;;;;18.30;63.52;101427.66;5206062;28;20033;-75
2022/06/05 02:37:10;;;;;;;7.20;6.17;;;;;;;18.12;66.52;101425.56;5206433;28;20038;-75
2022/06/05 02:40:08;;;;;;;9.53;6.67;;;;;;;18.10;66.74;101417.72;5207965;28;20030;-76
2022/06/05 02:43:04;;;;;;;12.53;7.07;;;;;;;18.16;68.99;101399.66;5209006;28;20163;-76
2022/06/05 02:45:51;;;;;;;8.80;6.10;;;;;;;17.99;67.64;101404.53;5209072;28;20040;-75
2022/06/05 02:48:32;;;;;;;9.33;6.47;;;;;;;17.90;65.11;101391.09;5207887;28;20629;-75
2022/06/05 02:51:16;;;;;;;7.13;6.43;;;;;;;17.84;66.31;101388.94;5208672;28;20026;-75
2022/06/05 02:53:58;;;;;;;7.68;6.95;;;;;;;17.74;66.71;101380.06;5207336;28;20034;-75
2022/06/05 02:56:31;;;;;;;9.13;6.40;;;;;;;17.48;66.82;101354.75;5208837;28;20033;-76
2022/06/05 02:59:03;;;;;;;7.17;6.17;;;;;;;17.47;65.30;101357.53;5208404;28;20025;-76
2022/06/05 03:04:31;;;;;;;7.00;6.30;;;;;;;17.41;65.76;101359.72;5199613;28;20033;-75
2022/06/05 03:07:04;;;;;;;7.10;6.40;;;;;;;17.41;66.67;101353.56;5208096;28;20077;-76
2022/06/05 03:09:35;;;;;;;9.83;6.50;;;;;;;17.33;66.08;101348.06;5208895;28;20076;-75
2022/06/05 03:12:07;;;;;;;7.90;6.27;;;;;;;17.44;64.79;101355.16;5208434;28;20038;-75
2022/06/05 03:14:38;;;;;;;9.33;5.70;;;;;;;17.38;65.86;101338.78;5209666;28;20032;-75
2022/06/05 03:17:10;;;;;;;11.57;7.43;;;;;;;17.41;65.09;101342.97;5208784;28;20101;-75
2022/06/05 03:19:42;;;;;;;7.23;6.27;;;;;;;17.52;64.87;101335.00;5207876;28;20510;-75
2022/06/05 03:22:13;;;;;;;8.93;6.57;;;;;;;17.32;65.26;101343.72;5208064;28;20088;-75
2022/06/05 03:24:44;;;;;;;10.23;7.00;;;;;;;17.19;64.83;101341.25;5207047;28;20034;-75
2022/06/05 03:27:16;;;;;;;7.73;6.27;;;;;;;17.40;64.68;101355.38;5207769;28;20065;-75
2022/06/05 03:29:48;;;;;;;9.13;6.80;;;;;;;17.60;63.51;101360.84;5206970;28;20030;-76
2022/06/05 03:32:19;;;;;;;8.73;6.83;;;;;;;17.37;62.81;101362.72;5208183;28;20025;-75
2022/06/05 03:34:50;;;;;;;8.97;6.60;;;;;;;17.59;64.44;101368.94;5208293;28;20026;-75
2022/06/05 03:37:22;;;;;;;8.73;7.40;;;;;;;17.39;66.91;101377.53;5207031;28;20068;-76
2022/06/05 03:39:53;;;;;;;11.47;7.20;;;;;;;17.38;66.17;101372.34;5207482;28;20030;-76
2022/06/05 03:42:25;;;;;;;6.97;6.07;;;;;;;17.54;64.84;101372.78;5208555;28;20034;-77
2022/06/05 03:44:57;;;;;;;8.40;7.23;;;;;;;17.38;66.59;101375.84;5207978;28;20083;-76
2022/06/05 03:47:28;;;;;;;8.93;6.73;;;;;;;17.30;66.56;101370.31;5208127;28;20025;-75
2022/06/05 03:49:59;;;;;;;10.60;6.73;;;;;;;17.37;64.80;101360.06;5207480;28;20052;-76
2022/06/05 03:52:30;;;;;;;9.33;6.37;;;;;;;17.42;64.65;101371.97;5207705;28;20065;-77
2022/06/05 03:55:03;;;;;;;10.00;7.33;;;;;;;17.22;65.46;101364.81;5208167;28;20034;-76
2022/06/05 03:57:34;;;;;;;9.17;7.03;;;;;;;17.28;65.67;101370.44;5206299;28;20030;-75
2022/06/05 04:00:07;;;;;;;10.27;6.50;;;;;;;17.49;63.89;101371.50;5207968;28;20053;-76
2022/06/05 04:02:39;;;;;;;10.07;6.80;;;;;;;17.49;64.72;101382.09;5207335;28;20552;-75
2022/06/05 04:05:14;;;;;;;7.97;6.07;;;;;;;17.36;64.85;101385.72;5208591;28;20030;-76
2022/06/05 04:07:46;;;;;;;7.27;6.57;;;;;;;17.36;64.31;101375.13;5206529;28;20034;-74
2022/06/05 04:10:18;;;;;;;9.73;6.90;;;;;;;17.24;64.66;101365.53;5186381;28;20038;-74
2022/06/05 04:12:50;;;;;;;10.03;7.63;;;;;;;17.09;63.91;101344.56;5188104;28;20046;-75
2022/06/05 04:15:21;;;;;;;10.10;6.90;;;;;;;17.25;64.37;101372.50;5206652;28;20026;-76
2022/06/05 04:17:53;;;;;;;13.50;6.73;;;;;;;17.19;63.89;101351.81;5211315;28;20888;-76
2022/06/05 04:20:24;;;;;;;7.90;6.77;;;;;;;17.29;64.12;101353.63;5210823;28;20030;-76
2022/06/05 04:22:55;;;;;;;10.47;7.17;;;;;;;17.34;63.97;101353.22;5210248;28;20125;-76
2022/06/05 04:25:27;;;;;;;7.97;6.77;;;;;;;17.18;64.18;101343.03;5209706;28;20068;-76
2022/06/05 04:27:58;;;;;;;7.87;6.53;;;;;;;17.22;64.02;101354.22;5210724;28;20128;-76
2022/06/05 04:30:29;;;;;;;12.63;6.73;;;;;;;17.04;64.34;101328.22;5211978;28;20104;-76
2022/06/05 04:33:00;;;;;;;11.73;7.63;;;;;;;17.20;63.51;101335.81;5210921;28;20464;-76
2022/06/05 04:35:32;;;;;;;10.27;7.00;;;;;;;17.11;63.69;101357.72;5211587;28;20886;-76
2022/06/05 04:38:04;;;;;;;8.13;6.40;;;;;;;17.11;63.90;101332.09;5208588;28;20030;-74
2022/06/05 04:40:35;;;;;;;10.10;7.10;;;;;;;17.16;63.81;101359.03;5210867;28;20057;-76
2022/06/05 04:43:08;;;;;;;8.77;6.63;;;;;;;16.93;64.05;101308.75;5211057;28;20076;-75
2022/06/05 04:45:42;;;;;;;10.83;6.83;;;;;;;17.24;62.80;101349.66;5211735;28;20473;-75
2022/06/05 04:48:13;;;;;;;10.05;6.60;;;;;;;17.20;62.49;101345.56;5210842;28;20034;-75
2022/06/05 04:50:44;;;;;;;8.67;6.23;;;;;;;16.96;64.15;101349.19;5210697;28;20030;-76
2022/06/05 04:53:16;;;;;;;8.50;7.20;;;;;;;17.00;63.92;101351.44;5209608;28;20037;-75
2022/06/05 04:55:47;;;;;;;7.60;6.80;;;;;;;16.91;64.03;101353.00;5209501;28;20489;-75
2022/06/05 04:58:18;;;;;;;8.07;6.17;;;;;;;17.08;63.96;101355.28;5210128;28;20397;-76
2022/06/05 05:00:50;;;;;;;8.93;6.70;;;;;;;16.79;63.39;101351.34;5210747;28;20400;-75
2022/06/05 05:03:21;;;;;;;10.73;7.57;;;;;;;16.79;64.96;101349.53;5208537;28;20037;-76
2022/06/05 05:05:53;;;;;;;8.13;6.07;;;;;;;16.95;64.35;101348.31;5204106;28;20088;-75
2022/06/05 05:08:24;;;;;;;8.33;6.97;;;;;;;16.90;63.79;101342.56;5188961;28;20093;-76
2022/06/05 05:10:55;;;;;;;9.70;6.70;;;;;;;16.85;64.29;101361.44;5205812;28;20424;-77
2022/06/05 05:13:27;;;;;;;10.30;7.30;;;;;;;16.92;63.49;101365.28;5210476;28;20046;-77
2022/06/05 05:15:58;;;;;;;10.87;7.20;;;;;;;16.90;63.74;101366.38;5210781;28;20061;-76
2022/06/05 05:18:30;;;;;;;9.53;6.83;;;;;;;16.91;64.25;101363.59;5210975;28;20030;-75
2022/06/05 05:21:11;;;;;;;8.27;6.47;;;;;;;16.91;64.33;101350.38;5209304;28;20040;-75
2022/06/05 05:23:44;;;;;;;10.17;6.97;;;;;;;16.93;63.49;101359.03;5201967;28;20100;-75
2022/06/05 05:26:24;;;;;;;8.67;6.50;;;;;;;16.85;64.23;101353.50;5208694;28;20714;-75
2022/06/05 05:28:56;;;;;;;11.50;7.10;;;;;;;16.80;64.00;101366.25;5210452;28;20026;-75
2022/06/05 05:31:30;;;;;;;7.10;6.00;;;;;;;16.84;64.58;101351.84;5209692;28;20021;-75
2022/06/05 05:34:02;;;;;;;7.87;6.20;;;;;;;16.85;64.61;101358.81;5209135;28;20021;-76
2022/06/05 05:36:34;;;;;;;12.00;6.63;;;;;;;17.06;64.11;101360.72;5208724;28;20022;-75
2022/06/05 05:42:04;;;;;;;7.67;5.93;;;;;;;16.83;64.10;101338.72;5201027;28;20034;-75
2022/06/05 05:44:45;;;;;;;10.40;7.17;;;;;;;16.91;64.12;101357.47;5210050;28;20030;-76
2022/06/05 05:47:23;;;;;;;9.80;7.37;;;;;;;16.98;63.88;101363.13;5209865;28;20408;-76
2022/06/05 05:50:00;;;;;;;9.97;7.50;;;;;;;17.03;64.94;101363.59;5209649;28;20053;-76
2022/06/05 05:52:31;;;;;;;8.97;6.30;;;;;;;17.09;64.18;101354.34;5209242;28;20030;-76
2022/06/05 05:55:04;;;;;;;7.67;6.77;;;;;;;16.92;64.52;101362.66;5210000;28;20049;-76
2022/06/05 05:57:35;;;;;;;11.60;6.67;;;;;;;16.97;64.39;101349.06;5209713;28;20087;-76
2022/06/05 06:00:09;;;;;;;7.63;6.23;;;;;;;16.93;65.30;101351.09;5209570;28;20033;-77
2022/06/05 06:02:42;;;;;;;9.48;6.72;;;;;;;16.97;64.44;101325.25;5209209;28;20034;-77
2022/06/05 06:05:16;;;;;;;10.53;7.10;;;;;;;16.89;65.10;101320.56;5209383;28;20393;-75
2022/06/05 06:07:48;;;;;;;7.93;6.87;;;;;;;17.08;65.19;101329.69;5206789;28;20405;-75
2022/06/05 06:10:19;;;;;;;9.37;6.03;;;;;;;17.13;65.30;101316.94;5208546;28;20033;-75
2022/06/05 06:12:51;;;;;;;9.10;6.97;;;;;;;17.19;64.95;101320.06;5210046;28;20042;-77
2022/06/05 06:15:22;;;;;;;10.47;6.60;;;;;;;17.24;64.70;101304.66;5208644;28;20026;-74
2022/06/05 06:17:53;;;;;;;10.53;6.80;;;;;;;17.20;64.16;101301.41;5208834;28;20034;-77
2022/06/05 06:20:25;;;;;;;8.83;6.63;;;;;;;17.22;65.25;101296.84;5208588;28;20522;-76
2022/06/05 06:22:56;;;;;;;9.53;7.07;;;;;;;17.19;64.30;101291.81;5208390;28;20032;-76
2022/06/05 06:25:28;;;;;;;9.93;5.97;;;;;;;17.32;64.45;101299.56;5208202;28;20030;-76
2022/06/05 06:27:59;;;;;;;11.73;7.53;;;;;;;17.38;64.46;101299.09;5207113;28;20532;-75
2022/06/05 06:30:32;;;;;;;12.47;6.23;;;;;;;17.52;65.31;101291.81;5208840;28;20618;-76
2022/06/05 06:33:04;;;;;;;9.30;5.93;;;;;;;17.32;64.33;101267.81;5208309;28;20121;-76
2022/06/05 06:35:36;;;;;;;9.13;7.07;;;;;;;17.52;65.22;101270.63;5210269;28;20112;-77
2022/06/05 06:38:08;;;;;;;10.63;6.23;;;;;;;17.71;63.99;101269.06;5206991;28;20049;-76
2022/06/05 06:40:40;;;;;;;7.73;6.90;;;;;;;17.59;65.83;101270.94;5209321;28;20034;-75
2022/06/05 06:43:11;;;;;;;7.77;6.97;;;;;;;17.69;64.62;101263.06;5208437;28;20037;-76
2022/06/05 06:45:43;;;;;;;9.80;6.50;;;;;;;17.87;64.64;101260.69;5208354;28;20034;-77
2022/06/05 06:48:14;;;;;;;9.60;6.40;;;;;;;17.82;64.21;101250.44;5208473;28;20042;-76
2022/06/05 06:50:45;;;;;;;8.93;7.30;;;;;;;17.89;64.69;101250.81;5208733;28;20087;-77
2022/06/05 06:53:16;;;;;;;8.67;6.50;;;;;;;17.89;63.95;101245.50;5207451;28;20034;-76
2022/06/05 06:55:49;;;;;;;10.10;6.70;;;;;;;18.07;64.22;101256.31;5207435;28;20377;-76
2022/06/05 06:58:21;;;;;;;8.50;6.83;;;;;;;17.89;63.54;101256.09;5208355;28;20108;-75
2022/06/05 07:00:52;;;;;;;13.97;6.57;;;;;;;18.04;64.73;101256.59;5206078;28;20117;-75
2022/06/05 07:03:24;;;;;;;8.27;6.63;;;;;;;18.29;63.09;101257.16;5209528;28;20121;-75
2022/06/05 07:05:56;;;;;;;11.43;7.57;;;;;;;18.34;62.83;101254.97;5212023;28;20038;-75
2022/06/05 07:08:28;;;;;;;8.97;6.67;;;;;;;18.31;62.82;101247.25;5205498;28;20526;-75
2022/06/05 07:10:59;;;;;;;9.93;6.60;;;;;;;18.53;62.77;101240.09;5209853;28;20030;-75
2022/06/05 07:13:31;;;;;;;8.73;6.30;;;;;;;18.76;62.36;101239.03;5208584;28;20104;-76
2022/06/05 07:16:06;;;;;;;9.13;6.23;;;;;;;18.87;62.05;101241.53;5208539;28;20159;-76
2022/06/05 07:18:38;;;;;;;;;;;;;;;19.18;61.29;101240.66;5208806;28;20030;-76
2022/06/05 07:21:11;;;;;;;9.10;6.00;;;;;;;19.06;61.45;101237.25;5208337;28;19920;-76
2022/06/05 07:23:43;;;;;;;8.45;5.80;;;;;;;19.25;60.96;101241.78;5208537;28;20068;-77
2022/06/05 07:26:17;;;;;;;12.07;6.83;;;;;;;19.41;61.18;101235.06;5207586;28;20062;-76
2022/06/05 07:28:49;;;;;;;9.63;6.53;;;;;;;19.56;60.41;101232.78;5208024;28;20129;-75
2022/06/05 07:31:20;;;;;;;7.27;6.00;;;;;;;19.47;60.61;101210.56;5207261;28;20607;-76
2022/06/05 07:33:52;;;;;;;9.27;6.10;;;;;;;19.75;59.76;101225.75;5208646;28;20034;-74
2022/06/05 07:36:25;;;;;;;7.43;6.33;;;;;;;19.70;59.35;101212.91;5206868;28;20034;-75
2022/06/05 07:38:57;;;;;;;8.77;6.90;;;;;;;19.71;59.99;101219.88;5206700;28;20068;-75
2022/06/05 07:41:32;;;;;;;6.83;6.13;;;;;;;20.18;60.70;101218.22;5208128;28;20030;-76
2022/06/05 07:44:05;;;;;;;11.60;6.57;;;;;;;20.29;59.37;101211.88;5207027;28;20436;-75
2022/06/05 07:46:37;;;;;;;9.00;7.03;;;;;;;20.38;59.14;101207.50;5208284;28;20029;-75
2022/06/05 07:49:09;;;;;;;11.93;6.10;;;;;;;20.45;58.25;101192.63;5206793;28;20393;-75
2022/06/05 07:54:31;;;;;;;7.03;6.33;;;;;;;20.51;58.60;101212.50;5203236;28;20447;-75
2022/06/05 07:57:10;;;;;;;8.57;6.60;;;;;;;20.82;58.31;101196.19;5200314;28;20457;-76
2022/06/05 07:59:43;;;;;;;9.73;6.70;;;;;;;20.88;58.38;101200.03;5201467;28;20038;-77
2022/06/05 08:02:20;;;;;;;9.00;5.80;;;;;;;20.94;57.54;101198.63;5205862;28;20668;-76
2022/06/05 08:04:54;;;;;;;8.68;6.93;;;;;;;21.02;56.59;101191.56;5201666;28;20029;-76
2022/06/05 08:07:29;;;;;;;8.45;6.32;;;;;;;21.32;57.35;101180.63;5205744;28;20037;-77
2022/06/05 08:10:01;;;;;;;10.57;6.45;;;;;;;21.58;57.25;101186.97;5201847;28;20034;-77
2022/06/05 08:12:34;;;;;;;7.15;6.35;;;;;;;21.88;55.28;101182.19;5196038;28;20041;-76
2022/06/05 08:15:12;;;;;;;6.70;5.55;;;;;;;22.28;56.13;101190.50;5212683;28;20085;-77
2022/06/05 08:17:43;;;;;;;8.60;6.68;;;;;;;22.77;53.82;101180.97;5215145;28;20033;-76
2022/06/05 08:20:15;;;;;;;8.02;6.55;;;;;;;23.06;52.91;101176.13;5211231;28;20037;-75
2022/06/05 08:22:46;;;;;;;10.07;6.15;;;;;;;23.56;51.92;101176.13;5210572;28;20030;-76
2022/06/05 08:25:19;;;;;;;14.43;7.63;;;;;;;23.80;50.39;101161.03;5208694;28;20111;-75
2022/06/05 08:27:50;;;;;;;9.17;6.13;;;;;;;23.99;50.23;101127.69;5211243;28;20037;-77
2022/06/05 08:30:22;;;;;;;11.30;7.05;;;;;;;23.82;49.61;101167.03;5209825;28;20385;-77
2022/06/05 08:32:53;;;;;;;9.77;6.88;;;;;;;23.82;49.89;101167.03;5211548;28;20422;-78
2022/06/05 08:35:24;;;;;;;11.45;5.88;;;;;;;24.19;51.07;101169.25;5192339;28;20026;-77
2022/06/05 08:44:02;;;;;;;8.50;6.80;;;;;;;24.11;49.49;101178.94;5206387;28;20543;-77
2022/06/05 08:46:45;;;;;;;9.35;6.75;;;;;;;23.58;50.46;101178.63;5196934;28;20052;-77
2022/06/05 08:49:45;;;;;;;7.20;6.25;;;;;;;23.50;50.85;101182.13;5195993;28;20038;-77
2022/06/05 08:52:21;;;;;;;8.20;7.10;;;;;;;23.39;50.00;101191.34;5198766;28;20041;-75
2022/06/05 08:55:04;;;;;;;11.45;6.45;;;;;;;23.08;52.03;101187.50;5198971;28;20052;-72
2022/06/05 08:57:40;;;;;;;15.02;8.32;;;;;;;22.74;52.24;101180.47;5198076;28;20034;-75
2022/06/05 09:00:20;;;;;;;11.27;7.53;;;;;;;22.66;52.68;101182.13;5198357;28;20971;-77
2022/06/05 09:03:05;;;;;;;11.38;7.88;;;;;;;22.44;53.94;101189.72;5198923;28;20034;-75
2022/06/05 09:05:40;;;;;;;9.85;8.02;;;;;;;22.20;54.36;101187.81;5197160;28;20094;-75
2022/06/05 09:08:16;;;;;;;9.05;8.02;;;;;;;22.32;54.00;101191.88;5197694;28;20548;-76
2022/06/05 09:10:59;;;;;;;9.40;8.15;;;;;;;21.92;55.10;101190.69;5198698;28;20524;-76
2022/06/05 09:14:01;;;;;;;8.43;7.65;;;;;;;21.86;55.94;101190.34;5197527;28;20487;-76
2022/06/05 09:16:40;;;;;;;13.52;8.13;;;;;;;21.58;56.50;101184.31;5198222;28;21100;-76
2022/06/05 09:19:17;;;;;;;11.30;7.82;;;;;;;21.71;56.14;101178.56;5195487;28;20468;-76
2022/06/05 09:22:01;;;;;;;10.18;8.70;;;;;;;21.64;56.87;101178.34;5195972;28;20064;-76
2022/06/05 09:24:38;;;;;;;12.27;7.88;;;;;;;21.62;57.52;101175.00;5197081;28;20036;-76
2022/06/05 09:27:30;;;;;;;11.32;7.95;;;;;;;21.67;56.68;101174.53;5194843;28;21211;-76
2022/06/05 09:30:09;;;;;;;11.27;8.27;;;;;;;21.36;58.44;101157.19;5195451;28;20073;-77
2022/06/05 09:33:03;;;;;;;9.07;8.27;;;;;;;21.58;57.43;101163.81;5193906;28;20045;-76
2022/06/05 09:36:09;;;;;;;10.95;8.25;;;;;;;21.61;56.92;101178.66;5195379;28;20124;-75
2022/06/05 09:38:44;;;;;;;11.43;7.78;;;;;;;21.42;58.58;101169.06;5153366;28;20042;-75
2022/06/05 09:41:31;;;;;;;8.02;7.25;;;;;;;21.52;58.74;101159.94;5197884;28;20037;-82
2022/06/05 09:44:26;;;;;;;9.00;8.02;;;;;;;21.45;58.46;101164.22;5197178;28;20063;-77
2022/06/05 09:46:59;;;;;;;9.63;8.07;;;;;;;21.21;60.20;101155.09;5196712;28;20420;-77
2022/06/05 09:49:37;;;;;;;11.73;8.23;;;;;;;21.28;59.76;101148.16;5196342;28;20504;-72
2022/06/05 09:52:17;;;;;;;14.00;7.78;;;;;;;21.22;59.80;101148.78;5195416;28;20029;-75
2022/06/05 09:54:55;;;;;;;9.13;7.65;;;;;;;21.40;59.33;101140.72;5196227;28;20034;-77
2022/06/05 10:00:36;;;;;;;9.80;7.75;;;;;;;21.40;60.91;101127.41;5196024;28;20057;-76
2022/06/05 10:03:13;;;;;;;12.20;7.50;;;;;;;21.22;61.61;101119.50;5196261;28;20097;-81
2022/06/05 10:06:23;;;;;;;10.27;7.70;;;;;;;21.39;62.14;101116.91;5195728;28;20033;-86
2022/06/05 10:09:17;;;;;;;8.73;7.65;;;;;;;21.32;64.25;101116.72;5181537;28;20806;-84
2022/06/05 10:11:57;;;;;;;12.55;8.05;;;;;;;21.23;63.20;101113.16;5192439;28;20056;-81
2022/06/05 10:14:36;;;;;;;10.88;8.43;;;;;;;21.16;64.88;101117.44;5195273;28;20053;-79
2022/06/05 10:17:13;;;;;;;12.97;7.87;;;;;;;21.36;66.06;101111.91;5195957;28;20025;-83
2022/06/05 10:19:59;;;;;;;10.00;8.95;;;;;;;21.35;67.11;101115.53;5196000;28;20042;-80
2022/06/05 10:22:53;;;;;;;8.38;7.55;;;;;;;21.30;67.20;101101.88;5195523;28;20032;-86
2022/06/05 10:25:33;;;;;;;10.00;9.10;;;;;;;21.44;70.31;101117.28;5193168;28;20077;-83
2022/06/05 10:28:11;;;;;;;12.73;9.20;;;;;;;21.39;67.93;101107.09;5196677;28;20040;-82
2022/06/05 10:31:05;;;;;;;9.50;8.60;;;;;;;21.48;66.29;101115.13;5196553;28;20037;-77
2022/06/05 10:33:41;;;;;;;10.38;9.38;;;;;;;21.18;67.39;101118.13;5196825;28;21030;-83
2022/06/05 10:36:19;;;;;;;14.45;9.52;;;;;;;21.31;68.91;101116.88;5196237;28;20084;-77
2022/06/05 10:39:04;;;;;;;10.23;9.03;;;;;;;21.10;70.41;101108.22;5196485;28;20064;-77
2022/06/05 10:41:49;;;;;;;9.77;8.77;;;;;;;21.02;70.96;101106.34;5197463;28;20022;-77
2022/06/05 10:44:43;;;;;;;10.38;9.30;;;;;;;20.91;73.26;101096.75;5197021;28;20029;-77
2022/06/05 10:47:28;;;;;;;;;;;;;;;21.26;68.58;101112.00;5196229;28;20045;-76
2022/06/05 10:50:17;;;;;;;11.53;9.47;;;;;;;20.73;75.51;101098.59;5205050;28;19923;-76
2022/06/05 10:53:00;;;;;;;13.07;10.07;;;;;;;20.79;74.49;101109.47;5197498;28;20022;-77
2022/06/05 10:55:58;;;;;;;11.10;10.00;;;;;;;20.69;77.23;101111.38;5198079;28;20109;-77
2022/06/05 10:58:42;;;;;;;14.10;11.00;;;;;;;20.54;79.29;101111.91;5187389;28;20026;-77
2022/06/05 11:01:25;;;;;;;13.25;11.95;;;;;;;20.60;80.07;101106.97;5201168;28;20030;-79
2022/06/05 11:04:09;;;;;;;16.80;11.57;;;;;;;20.67;79.79;101106.22;5195150;28;20034;-77
2022/06/05 11:06:50;;;;;;;19.42;13.27;;;;;;;20.54;83.81;101109.25;5206245;28;20365;-77
2022/06/05 11:09:49;;;;;;;13.60;12.23;;;;;;;20.76;80.41;101106.28;5206013;28;20042;-77
2022/06/05 11:15:52;;;;;;;17.97;13.40;;;;;;;20.55;84.02;101105.59;5209075;28;20493;-76
2022/06/05 11:18:43;;;;;;;14.00;12.20;;;;;;;20.74;85.27;101100.25;5203522;28;20470;-76
2022/06/05 11:21:18;;;;;;;18.73;14.20;;;;;;;20.61;85.60;101104.16;5187338;28;20038;-75
2022/06/05 11:23:54;;;;;;;17.03;12.97;;;;;;;20.14;85.93;101098.03;5187608;28;20089;-73
2022/06/05 11:26:44;;;;;;;16.03;14.37;;;;;;;20.33;90.56;101085.63;5190607;28;20513;-74
2022/06/05 11:29:48;;;;;;;13.67;12.27;;;;;;;20.30;87.14;101091.22;5191545;28;20057;-73
2022/06/05 11:32:46;;;;;;;20.90;14.87;;;;;;;20.19;90.89;101081.66;5199578;28;20037;-71
2022/06/05 11:35:30;;;;;;;16.07;14.43;;;;;;;19.82;94.36;101072.72;5210793;28;20034;-71
2022/06/05 11:38:23;;;;;;;18.33;15.30;;;;;;;20.00;96.93;101080.72;5202276;28;20037;-73
2022/06/05 11:40:59;;;;;;;31.93;17.10;;;;;;;19.77;97.64;101077.66;5202004;28;20527;-75
2022/06/05 11:43:34;;;;;;;18.37;15.93;;;;;;;19.72;99.63;101075.44;5200293;28;20034;-74
2022/06/05 11:46:08;;;;;;;16.37;14.67;;;;;;;19.56;96.92;101073.41;5201228;28;20105;-73
2022/06/05 11:49:11;;;;;;;19.43;17.43;;;;;;;19.93;100.00;101074.34;5208222;28;20040;-76
2022/06/05 11:52:05;;;;;;;17.37;15.67;;;;;;;19.83;100.00;101075.22;5198688;28;20296;-72
2022/06/05 11:54:39;;;;;;;16.95;15.20;;;;;;;19.67;97.16;101073.22;5211491;28;20050;-73
2022/06/05 11:57:27;;;;;;;18.98;17.13;;;;;;;19.72;99.66;101072.78;5210171;28;20034;-72
2022/06/05 12:00:05;;;;;;;19.50;17.60;;;;;;;19.66;100.00;101073.34;5211882;28;20045;-72
2022/06/05 12:02:45;;;;;;;16.83;15.03;;;;;;;19.56;100.00;101066.28;5211689;28;20060;-73
2022/06/05 12:05:27;;;;;;;21.13;16.70;;;;;;;19.47;100.00;101053.88;5212082;28;21024;-70
2022/06/05 12:08:10;;;;;;;17.97;16.17;;;;;;;19.67;100.00;101064.41;5205278;28;20452;-71
2022/06/05 12:10:53;;;;;;;16.67;15.13;;;;;;;19.55;100.00;101064.59;5193921;28;20037;-74
2022/06/05 12:14:03;;;;;;;19.67;17.60;;;;;;;19.71;99.92;101057.81;5198857;28;20046;-74
2022/06/05 12:16:48;;;;;;;18.30;16.70;;;;;;;19.58;100.00;101050.19;5205709;28;20038;-73
2022/06/05 12:19:34;;;;;;;17.60;15.90;;;;;;;19.43;100.00;101057.78;5209339;28;20098;-68
2022/06/05 12:22:37;;;;;;;17.03;15.50;;;;;;;19.71;100.00;101060.47;5210439;28;20038;-74
2022/06/05 12:25:23;;;;;;;19.43;17.03;;;;;;;19.61;100.00;101057.03;5211332;28;20072;-73
2022/06/05 12:28:17;;;;;;;17.37;15.47;;;;;;;19.66;99.52;101052.09;5211327;28;20053;-73
2022/06/05 12:31:22;;;;;;;18.97;16.87;;;;;;;19.71;100.00;101044.53;5211084;28;20435;-74
2022/06/05 12:34:11;;;;;;;17.92;16.23;;;;;;;19.51;100.00;101041.97;5199309;28;20480;-74